sensor_id;sensor_type;location;lat;lon;timestamp;P1;durP1;ratioP1;P2;durP2;ratioP2
58240;SDS011;45058;55.772;38.224;2023-03-23T00:01:18;8.60;;;5.03;;
58240;SDS011;45058;55.772;38.224;2023-03-23T00:03:49;10.20;;;5.37;;
58240;SDS011;45058;55.772;38.224;2023-03-23T00:06:17;9.57;;;5.30;;
58240;SDS011;45058;55.772;38.224;2023-03-23T00:08:45;11.77;;;5.07;;
58240;SDS011;45058;55.772;38.224;2023-03-23T00:11:21;9.67;;;5.60;;
58240;SDS011;45058;55.772;38.224;2023-03-23T00:13:49;8.33;;;5.53;;
58240;SDS011;45058;55.772;38.224;2023-03-23T00:16:20;9.50;;;4.83;;
58240;SDS011;45058;55.772;38.224;2023-03-23T00:18:56;8.33;;;5.70;;
58240;SDS011;45058;55.772;38.224;2023-03-23T00:21:31;8.23;;;4.97;;
58240;SDS011;45058;55.772;38.224;2023-03-23T00:26:34;7.73;;;5.47;;
58240;SDS011;45058;55.772;38.224;2023-03-23T00:29:03;10.80;;;5.60;;
58240;SDS011;45058;55.772;38.224;2023-03-23T00:31:30;7.00;;;5.10;;
58240;SDS011;45058;55.772;38.224;2023-03-23T00:34:02;7.47;;;4.97;;
58240;SDS011;45058;55.772;38.224;2023-03-23T00:36:33;9.27;;;5.27;;
58240;SDS011;45058;55.772;38.224;2023-03-23T00:39:03;8.53;;;4.93;;
58240;SDS011;45058;55.772;38.224;2023-03-23T00:41:29;10.67;;;4.60;;
58240;SDS011;45058;55.772;38.224;2023-03-23T00:43:56;10.47;;;5.10;;
58240;SDS011;45058;55.772;38.224;2023-03-23T00:46:25;8.47;;;5.00;;
58240;SDS011;45058;55.772;38.224;2023-03-23T00:48:54;6.23;;;4.47;;
58240;SDS011;45058;55.772;38.224;2023-03-23T00:51:22;10.77;;;5.43;;
58240;SDS011;45058;55.772;38.224;2023-03-23T00:53:49;9.60;;;4.93;;
58240;SDS011;45058;55.772;38.224;2023-03-23T00:56:15;9.23;;;4.53;;
58240;SDS011;45058;55.772;38.224;2023-03-23T00:58:41;8.93;;;4.93;;
58240;SDS011;45058;55.772;38.224;2023-03-23T01:01:08;9.73;;;4.83;;
58240;SDS011;45058;55.772;38.224;2023-03-23T01:03:34;7.00;;;4.87;;
58240;SDS011;45058;55.772;38.224;2023-03-23T01:06:08;9.23;;;4.83;;
58240;SDS011;45058;55.772;38.224;2023-03-23T01:08:41;8.07;;;5.00;;
58240;SDS011;45058;55.772;38.224;2023-03-23T01:11:12;8.30;;;4.90;;
58240;SDS011;45058;55.772;38.224;2023-03-23T01:13:40;8.53;;;5.60;;
58240;SDS011;45058;55.772;38.224;2023-03-23T01:16:07;10.07;;;4.20;;
58240;SDS011;45058;55.772;38.224;2023-03-23T01:18:34;8.27;;;4.63;;
58240;SDS011;45058;55.772;38.224;2023-03-23T01:21:07;8.67;;;5.20;;
58240;SDS011;45058;55.772;38.224;2023-03-23T01:23:36;8.02;;;4.43;;
58240;SDS011;45058;55.772;38.224;2023-03-23T01:26:03;7.40;;;4.70;;
58240;SDS011;45058;55.772;38.224;2023-03-23T01:28:31;8.87;;;4.80;;
58240;SDS011;45058;55.772;38.224;2023-03-23T01:31:07;7.13;;;4.83;;
58240;SDS011;45058;55.772;38.224;2023-03-23T01:33:38;9.17;;;5.27;;
58240;SDS011;45058;55.772;38.224;2023-03-23T01:36:06;8.03;;;4.53;;
58240;SDS011;45058;55.772;38.224;2023-03-23T01:38:34;7.50;;;4.87;;
58240;SDS011;45058;55.772;38.224;2023-03-23T01:41:00;8.83;;;5.23;;
58240;SDS011;45058;55.772;38.224;2023-03-23T01:43:27;11.77;;;4.80;;
58240;SDS011;45058;55.772;38.224;2023-03-23T01:45:53;7.43;;;4.40;;
58240;SDS011;45058;55.772;38.224;2023-03-23T01:48:23;8.83;;;5.83;;
58240;SDS011;45058;55.772;38.224;2023-03-23T01:51:08;8.17;;;4.83;;
58240;SDS011;45058;55.772;38.224;2023-03-23T01:53:38;8.52;;;4.60;;
58240;SDS011;45058;55.772;38.224;2023-03-23T01:56:12;9.37;;;4.57;;
58240;SDS011;45058;55.772;38.224;2023-03-23T01:58:40;10.37;;;5.00;;
58240;SDS011;45058;55.772;38.224;2023-03-23T02:01:07;6.07;;;4.13;;
58240;SDS011;45058;55.772;38.224;2023-03-23T02:03:38;14.03;;;4.97;;
58240;SDS011;45058;55.772;38.224;2023-03-23T02:06:08;7.03;;;4.83;;
58240;SDS011;45058;55.772;38.224;2023-03-23T02:08:41;9.03;;;5.40;;
58240;SDS011;45058;55.772;38.224;2023-03-23T02:11:17;6.47;;;4.03;;
58240;SDS011;45058;55.772;38.224;2023-03-23T02:13:44;8.93;;;5.03;;
58240;SDS011;45058;55.772;38.224;2023-03-23T02:16:26;7.90;;;4.50;;
58240;SDS011;45058;55.772;38.224;2023-03-23T02:25:10;7.47;;;4.20;;
58240;SDS011;45058;55.772;38.224;2023-03-23T02:27:14;7.10;;;4.03;;
58240;SDS011;45058;55.772;38.224;2023-03-23T02:35:12;5.27;;;3.73;;
58240;SDS011;45058;55.772;38.224;2023-03-23T02:37:48;6.57;;;3.87;;
58240;SDS011;45058;55.772;38.224;2023-03-23T02:40:21;6.60;;;3.47;;
58240;SDS011;45058;55.772;38.224;2023-03-23T02:42:51;6.57;;;3.73;;
58240;SDS011;45058;55.772;38.224;2023-03-23T02:45:20;7.57;;;4.23;;
58240;SDS011;45058;55.772;38.224;2023-03-23T02:47:49;5.00;;;3.60;;
58240;SDS011;45058;55.772;38.224;2023-03-23T02:50:17;7.23;;;4.33;;
58240;SDS011;45058;55.772;38.224;2023-03-23T02:52:45;9.00;;;3.97;;
58240;SDS011;45058;55.772;38.224;2023-03-23T02:55:14;6.67;;;3.97;;
58240;SDS011;45058;55.772;38.224;2023-03-23T02:57:41;5.83;;;4.07;;
58240;SDS011;45058;55.772;38.224;2023-03-23T03:00:12;8.07;;;4.10;;
58240;SDS011;45058;55.772;38.224;2023-03-23T03:02:41;9.70;;;4.30;;
58240;SDS011;45058;55.772;38.224;2023-03-23T03:10:53;7.93;;;4.67;;
58240;SDS011;45058;55.772;38.224;2023-03-23T03:13:46;7.83;;;4.20;;
58240;SDS011;45058;55.772;38.224;2023-03-23T03:16:36;9.93;;;4.07;;
58240;SDS011;45058;55.772;38.224;2023-03-23T03:21:44;12.00;;;4.57;;
58240;SDS011;45058;55.772;38.224;2023-03-23T03:24:17;15.90;;;4.77;;
58240;SDS011;45058;55.772;38.224;2023-03-23T03:26:50;10.27;;;4.70;;
58240;SDS011;45058;55.772;38.224;2023-03-23T03:29:25;10.60;;;4.03;;
58240;SDS011;45058;55.772;38.224;2023-03-23T03:31:56;12.37;;;4.33;;
58240;SDS011;45058;55.772;38.224;2023-03-23T03:34:26;12.77;;;4.87;;
58240;SDS011;45058;55.772;38.224;2023-03-23T03:36:54;17.20;;;6.03;;
58240;SDS011;45058;55.772;38.224;2023-03-23T03:39:21;12.53;;;7.00;;
58240;SDS011;45058;55.772;38.224;2023-03-23T03:41:48;19.87;;;6.50;;
58240;SDS011;45058;55.772;38.224;2023-03-23T03:44:14;10.73;;;5.37;;
58240;SDS011;45058;55.772;38.224;2023-03-23T03:46:41;8.10;;;4.77;;
58240;SDS011;45058;55.772;38.224;2023-03-23T03:49:08;12.63;;;5.20;;
58240;SDS011;45058;55.772;38.224;2023-03-23T03:51:38;13.27;;;4.70;;
58240;SDS011;45058;55.772;38.224;2023-03-23T03:54:06;12.10;;;4.60;;
58240;SDS011;45058;55.772;38.224;2023-03-23T03:56:32;7.47;;;4.40;;
58240;SDS011;45058;55.772;38.224;2023-03-23T03:59:20;8.80;;;4.30;;
58240;SDS011;45058;55.772;38.224;2023-03-23T04:02:08;8.00;;;4.67;;
58240;SDS011;45058;55.772;38.224;2023-03-23T04:04:34;8.07;;;4.37;;
58240;SDS011;45058;55.772;38.224;2023-03-23T04:07:01;17.30;;;4.70;;
58240;SDS011;45058;55.772;38.224;2023-03-23T04:09:28;7.90;;;4.33;;
58240;SDS011;45058;55.772;38.224;2023-03-23T04:11:57;6.07;;;4.10;;
58240;SDS011;45058;55.772;38.224;2023-03-23T04:14:42;9.83;;;4.83;;
58240;SDS011;45058;55.772;38.224;2023-03-23T04:17:08;8.80;;;5.00;;
58240;SDS011;45058;55.772;38.224;2023-03-23T04:19:37;8.70;;;4.93;;
58240;SDS011;45058;55.772;38.224;2023-03-23T04:22:05;13.70;;;4.93;;
58240;SDS011;45058;55.772;38.224;2023-03-23T04:24:34;10.13;;;5.03;;
58240;SDS011;45058;55.772;38.224;2023-03-23T04:27:04;12.10;;;5.10;;
58240;SDS011;45058;55.772;38.224;2023-03-23T04:29:31;10.13;;;5.07;;
58240;SDS011;45058;55.772;38.224;2023-03-23T04:32:02;10.90;;;5.20;;
58240;SDS011;45058;55.772;38.224;2023-03-23T04:34:34;16.37;;;5.77;;
58240;SDS011;45058;55.772;38.224;2023-03-23T04:37:01;11.50;;;5.83;;
58240;SDS011;45058;55.772;38.224;2023-03-23T04:39:29;9.77;;;5.67;;
58240;SDS011;45058;55.772;38.224;2023-03-23T04:42:00;13.17;;;6.23;;
58240;SDS011;45058;55.772;38.224;2023-03-23T04:44:47;15.40;;;6.37;;
58240;SDS011;45058;55.772;38.224;2023-03-23T04:47:26;13.63;;;6.30;;
58240;SDS011;45058;55.772;38.224;2023-03-23T04:49:57;13.53;;;5.97;;
58240;SDS011;45058;55.772;38.224;2023-03-23T04:52:41;13.70;;;6.50;;
58240;SDS011;45058;55.772;38.224;2023-03-23T04:55:13;13.13;;;6.27;;
58240;SDS011;45058;55.772;38.224;2023-03-23T04:57:43;12.80;;;6.70;;
58240;SDS011;45058;55.772;38.224;2023-03-23T05:00:33;13.93;;;6.03;;
58240;SDS011;45058;55.772;38.224;2023-03-23T05:03:02;11.60;;;6.70;;
58240;SDS011;45058;55.772;38.224;2023-03-23T05:05:29;16.07;;;7.10;;
58240;SDS011;45058;55.772;38.224;2023-03-23T05:08:02;14.63;;;6.73;;
58240;SDS011;45058;55.772;38.224;2023-03-23T05:10:32;14.63;;;7.07;;
58240;SDS011;45058;55.772;38.224;2023-03-23T05:13:04;11.30;;;6.50;;
58240;SDS011;45058;55.772;38.224;2023-03-23T05:15:30;13.93;;;7.33;;
58240;SDS011;45058;55.772;38.224;2023-03-23T05:17:58;11.70;;;6.10;;
58240;SDS011;45058;55.772;38.224;2023-03-23T05:20:24;12.37;;;6.73;;
58240;SDS011;45058;55.772;38.224;2023-03-23T05:22:56;13.10;;;6.90;;
58240;SDS011;45058;55.772;38.224;2023-03-23T05:25:35;12.03;;;6.57;;
58240;SDS011;45058;55.772;38.224;2023-03-23T05:28:12;11.83;;;6.57;;
58240;SDS011;45058;55.772;38.224;2023-03-23T05:31:13;16.27;;;6.80;;
58240;SDS011;45058;55.772;38.224;2023-03-23T05:33:40;12.67;;;7.13;;
58240;SDS011;45058;55.772;38.224;2023-03-23T05:36:14;13.40;;;6.30;;
58240;SDS011;45058;55.772;38.224;2023-03-23T05:39:04;12.53;;;6.93;;
58240;SDS011;45058;55.772;38.224;2023-03-23T05:41:57;25.93;;;15.23;;
58240;SDS011;45058;55.772;38.224;2023-03-23T05:44:27;42.30;;;29.13;;
58240;SDS011;45058;55.772;38.224;2023-03-23T05:46:57;50.40;;;40.07;;
58240;SDS011;45058;55.772;38.224;2023-03-23T05:49:23;67.73;;;51.47;;
58240;SDS011;45058;55.772;38.224;2023-03-23T05:51:53;34.27;;;21.23;;
58240;SDS011;45058;55.772;38.224;2023-03-23T05:54:20;21.93;;;11.73;;
58240;SDS011;45058;55.772;38.224;2023-03-23T05:56:48;36.40;;;18.07;;
58240;SDS011;45058;55.772;38.224;2023-03-23T05:59:32;27.43;;;19.73;;
58240;SDS011;45058;55.772;38.224;2023-03-23T06:02:00;25.47;;;18.30;;
58240;SDS011;45058;55.772;38.224;2023-03-23T06:04:26;17.27;;;10.23;;
58240;SDS011;45058;55.772;38.224;2023-03-23T06:07:15;15.90;;;8.20;;
58240;SDS011;45058;55.772;38.224;2023-03-23T06:09:51;27.38;;;18.13;;
58240;SDS011;45058;55.772;38.224;2023-03-23T06:12:22;49.17;;;35.97;;
58240;SDS011;45058;55.772;38.224;2023-03-23T06:14:58;22.33;;;15.90;;
58240;SDS011;45058;55.772;38.224;2023-03-23T06:17:41;15.53;;;8.73;;
58240;SDS011;45058;55.772;38.224;2023-03-23T06:20:07;16.37;;;9.47;;
58240;SDS011;45058;55.772;38.224;2023-03-23T06:22:37;17.27;;;9.07;;
58240;SDS011;45058;55.772;38.224;2023-03-23T06:25:12;66.10;;;43.88;;
58240;SDS011;45058;55.772;38.224;2023-03-23T06:27:41;16.47;;;10.57;;
58240;SDS011;45058;55.772;38.224;2023-03-23T06:30:07;22.30;;;14.33;;
58240;SDS011;45058;55.772;38.224;2023-03-23T06:32:34;48.10;;;36.57;;
58240;SDS011;45058;55.772;38.224;2023-03-23T06:35:03;28.90;;;20.43;;
58240;SDS011;45058;55.772;38.224;2023-03-23T06:37:38;25.13;;;17.58;;
58240;SDS011;45058;55.772;38.224;2023-03-23T06:40:11;21.27;;;11.10;;
58240;SDS011;45058;55.772;38.224;2023-03-23T06:42:39;23.97;;;12.37;;
58240;SDS011;45058;55.772;38.224;2023-03-23T06:48:05;82.50;;;50.50;;
58240;SDS011;45058;55.772;38.224;2023-03-23T06:50:31;82.17;;;52.40;;
58240;SDS011;45058;55.772;38.224;2023-03-23T06:52:59;52.63;;;32.37;;
58240;SDS011;45058;55.772;38.224;2023-03-23T06:55:25;28.97;;;18.10;;
58240;SDS011;45058;55.772;38.224;2023-03-23T06:57:53;33.00;;;15.67;;
58240;SDS011;45058;55.772;38.224;2023-03-23T07:00:19;18.40;;;11.47;;
58240;SDS011;45058;55.772;38.224;2023-03-23T07:02:46;29.10;;;18.10;;
58240;SDS011;45058;55.772;38.224;2023-03-23T07:05:12;77.38;;;52.35;;
58240;SDS011;45058;55.772;38.224;2023-03-23T07:07:42;58.08;;;44.80;;
58240;SDS011;45058;55.772;38.224;2023-03-23T07:10:18;32.05;;;19.10;;
58240;SDS011;45058;55.772;38.224;2023-03-23T07:12:45;23.08;;;11.13;;
58240;SDS011;45058;55.772;38.224;2023-03-23T07:15:11;99.70;;;69.22;;
58240;SDS011;45058;55.772;38.224;2023-03-23T07:17:40;36.60;;;24.88;;
58240;SDS011;45058;55.772;38.224;2023-03-23T07:20:29;34.17;;;20.80;;
58240;SDS011;45058;55.772;38.224;2023-03-23T07:22:56;24.23;;;13.80;;
58240;SDS011;45058;55.772;38.224;2023-03-23T07:25:40;14.02;;;8.48;;
58240;SDS011;45058;55.772;38.224;2023-03-23T07:28:10;17.95;;;9.77;;
58240;SDS011;45058;55.772;38.224;2023-03-23T07:30:37;19.65;;;10.63;;
58240;SDS011;45058;55.772;38.224;2023-03-23T07:33:07;16.30;;;10.40;;
58240;SDS011;45058;55.772;38.224;2023-03-23T07:35:34;14.68;;;8.50;;
58240;SDS011;45058;55.772;38.224;2023-03-23T07:38:08;18.23;;;9.88;;
58240;SDS011;45058;55.772;38.224;2023-03-23T07:40:35;28.73;;;16.08;;
58240;SDS011;45058;55.772;38.224;2023-03-23T07:43:12;45.22;;;32.63;;
58240;SDS011;45058;55.772;38.224;2023-03-23T07:48:33;50.85;;;41.38;;
58240;SDS011;45058;55.772;38.224;2023-03-23T07:50:59;16.17;;;10.88;;
58240;SDS011;45058;55.772;38.224;2023-03-23T07:53:28;19.48;;;11.63;;
58240;SDS011;45058;55.772;38.224;2023-03-23T07:56:06;24.13;;;14.68;;
58240;SDS011;45058;55.772;38.224;2023-03-23T07:58:53;32.00;;;24.65;;
58240;SDS011;45058;55.772;38.224;2023-03-23T08:01:20;34.92;;;26.25;;
58240;SDS011;45058;55.772;38.224;2023-03-23T08:04:06;39.38;;;32.08;;
58240;SDS011;45058;55.772;38.224;2023-03-23T08:06:50;39.50;;;31.02;;
58240;SDS011;45058;55.772;38.224;2023-03-23T08:09:31;16.75;;;11.00;;
58240;SDS011;45058;55.772;38.224;2023-03-23T08:12:22;11.80;;;7.70;;
58240;SDS011;45058;55.772;38.224;2023-03-23T08:15:03;14.75;;;8.00;;
58240;SDS011;45058;55.772;38.224;2023-03-23T08:17:50;12.88;;;7.55;;
58240;SDS011;45058;55.772;38.224;2023-03-23T08:20:52;13.50;;;7.03;;
58240;SDS011;45058;55.772;38.224;2023-03-23T08:23:51;11.80;;;8.30;;
58240;SDS011;45058;55.772;38.224;2023-03-23T08:26:45;14.85;;;7.82;;
58240;SDS011;45058;55.772;38.224;2023-03-23T08:29:20;11.85;;;8.13;;
58240;SDS011;45058;55.772;38.224;2023-03-23T08:31:58;10.88;;;7.68;;
58240;SDS011;45058;55.772;38.224;2023-03-23T08:34:43;14.75;;;7.80;;
58240;SDS011;45058;55.772;38.224;2023-03-23T08:37:28;15.07;;;8.02;;
58240;SDS011;45058;55.772;38.224;2023-03-23T08:40:15;10.95;;;8.15;;
58240;SDS011;45058;55.772;38.224;2023-03-23T08:42:56;13.07;;;7.60;;
58240;SDS011;45058;55.772;38.224;2023-03-23T08:45:40;12.23;;;7.82;;
58240;SDS011;45058;55.772;38.224;2023-03-23T08:48:27;12.65;;;7.50;;
58240;SDS011;45058;55.772;38.224;2023-03-23T08:51:12;10.15;;;7.55;;
58240;SDS011;45058;55.772;38.224;2023-03-23T08:53:57;12.80;;;7.25;;
58240;SDS011;45058;55.772;38.224;2023-03-23T08:56:24;10.45;;;8.05;;
58240;SDS011;45058;55.772;38.224;2023-03-23T08:59:14;12.45;;;7.28;;
58240;SDS011;45058;55.772;38.224;2023-03-23T09:01:53;11.95;;;7.43;;
58240;SDS011;45058;55.772;38.224;2023-03-23T09:04:24;14.45;;;7.90;;
58240;SDS011;45058;55.772;38.224;2023-03-23T09:07:17;10.20;;;6.35;;
58240;SDS011;45058;55.772;38.224;2023-03-23T09:09:43;9.25;;;7.40;;
58240;SDS011;45058;55.772;38.224;2023-03-23T09:12:09;8.20;;;6.93;;
58240;SDS011;45058;55.772;38.224;2023-03-23T09:14:36;13.10;;;7.60;;
58240;SDS011;45058;55.772;38.224;2023-03-23T09:17:03;12.82;;;7.35;;
58240;SDS011;45058;55.772;38.224;2023-03-23T09:19:30;10.32;;;6.70;;
58240;SDS011;45058;55.772;38.224;2023-03-23T09:21:59;10.10;;;7.15;;
58240;SDS011;45058;55.772;38.224;2023-03-23T09:24:27;11.25;;;7.07;;
58240;SDS011;45058;55.772;38.224;2023-03-23T09:26:53;13.13;;;7.00;;
58240;SDS011;45058;55.772;38.224;2023-03-23T09:29:19;10.48;;;6.85;;
58240;SDS011;45058;55.772;38.224;2023-03-23T09:31:46;14.15;;;7.43;;
58240;SDS011;45058;55.772;38.224;2023-03-23T09:34:12;14.45;;;6.75;;
58240;SDS011;45058;55.772;38.224;2023-03-23T09:36:43;11.00;;;7.13;;
58240;SDS011;45058;55.772;38.224;2023-03-23T09:39:10;10.25;;;7.50;;
58240;SDS011;45058;55.772;38.224;2023-03-23T09:41:57;10.32;;;7.57;;
58240;SDS011;45058;55.772;38.224;2023-03-23T09:47:33;15.80;;;8.75;;
58240;SDS011;45058;55.772;38.224;2023-03-23T09:50:12;10.55;;;6.93;;
58240;SDS011;45058;55.772;38.224;2023-03-23T09:52:48;9.88;;;6.70;;
58240;SDS011;45058;55.772;38.224;2023-03-23T09:55:18;9.02;;;7.15;;
58240;SDS011;45058;55.772;38.224;2023-03-23T10:01:04;8.25;;;5.75;;
58240;SDS011;45058;55.772;38.224;2023-03-23T10:03:35;9.38;;;6.57;;
58240;SDS011;45058;55.772;38.224;2023-03-23T10:06:04;9.35;;;6.30;;
58240;SDS011;45058;55.772;38.224;2023-03-23T10:08:31;9.35;;;6.30;;
58240;SDS011;45058;55.772;38.224;2023-03-23T10:11:06;8.18;;;6.60;;
58240;SDS011;45058;55.772;38.224;2023-03-23T10:16:26;7.47;;;6.10;;
58240;SDS011;45058;55.772;38.224;2023-03-23T10:21:28;9.25;;;6.32;;
58240;SDS011;45058;55.772;38.224;2023-03-23T10:24:00;9.10;;;5.70;;
58240;SDS011;45058;55.772;38.224;2023-03-23T10:35:01;7.93;;;5.53;;
58240;SDS011;45058;55.772;38.224;2023-03-23T10:37:38;8.68;;;5.50;;
58240;SDS011;45058;55.772;38.224;2023-03-23T10:40:12;8.73;;;6.40;;
58240;SDS011;45058;55.772;38.224;2023-03-23T10:42:41;9.80;;;6.55;;
58240;SDS011;45058;55.772;38.224;2023-03-23T10:47:44;8.32;;;5.53;;
58240;SDS011;45058;55.772;38.224;2023-03-23T10:50:14;16.08;;;11.35;;
58240;SDS011;45058;55.772;38.224;2023-03-23T10:52:43;16.65;;;10.82;;
58240;SDS011;45058;55.772;38.224;2023-03-23T10:55:17;21.40;;;10.93;;
58240;SDS011;45058;55.772;38.224;2023-03-23T10:57:45;12.27;;;6.93;;
58240;SDS011;45058;55.772;38.224;2023-03-23T11:00:28;9.50;;;5.28;;
58240;SDS011;45058;55.772;38.224;2023-03-23T11:03:00;8.32;;;5.20;;
58240;SDS011;45058;55.772;38.224;2023-03-23T11:08:03;7.68;;;4.57;;
58240;SDS011;45058;55.772;38.224;2023-03-23T11:11:19;6.03;;;4.55;;
58240;SDS011;45058;55.772;38.224;2023-03-23T11:13:55;6.70;;;4.95;;
58240;SDS011;45058;55.772;38.224;2023-03-23T11:16:42;9.13;;;4.90;;
58240;SDS011;45058;55.772;38.224;2023-03-23T11:19:12;11.50;;;7.80;;
58240;SDS011;45058;55.772;38.224;2023-03-23T11:21:40;11.52;;;5.65;;
58240;SDS011;45058;55.772;38.224;2023-03-23T11:24:07;11.43;;;5.35;;
58240;SDS011;45058;55.772;38.224;2023-03-23T11:26:34;10.02;;;5.07;;
58240;SDS011;45058;55.772;38.224;2023-03-23T11:29:05;6.85;;;4.50;;
58240;SDS011;45058;55.772;38.224;2023-03-23T11:31:53;9.07;;;4.60;;
58240;SDS011;45058;55.772;38.224;2023-03-23T11:34:40;9.60;;;4.38;;
58240;SDS011;45058;55.772;38.224;2023-03-23T11:42:45;10.07;;;4.50;;
58240;SDS011;45058;55.772;38.224;2023-03-23T11:45:20;5.68;;;4.30;;
58240;SDS011;45058;55.772;38.224;2023-03-23T11:50:26;17.08;;;4.95;;
58240;SDS011;45058;55.772;38.224;2023-03-23T11:58:21;5.30;;;4.15;;
58240;SDS011;45058;55.772;38.224;2023-03-23T12:00:55;7.93;;;4.25;;
58240;SDS011;45058;55.772;38.224;2023-03-23T12:03:22;7.50;;;4.60;;
58240;SDS011;45058;55.772;38.224;2023-03-23T12:08:44;5.85;;;4.32;;
58240;SDS011;45058;55.772;38.224;2023-03-23T12:22:32;5.43;;;4.03;;
58240;SDS011;45058;55.772;38.224;2023-03-23T12:25:17;9.40;;;3.97;;
58240;SDS011;45058;55.772;38.224;2023-03-23T12:28:11;8.40;;;4.30;;
58240;SDS011;45058;55.772;38.224;2023-03-23T12:36:14;8.85;;;4.57;;
58240;SDS011;45058;55.772;38.224;2023-03-23T12:42:16;8.43;;;4.03;;
58240;SDS011;45058;55.772;38.224;2023-03-23T12:44:53;7.60;;;4.00;;
58240;SDS011;45058;55.772;38.224;2023-03-23T12:47:29;9.95;;;3.83;;
58240;SDS011;45058;55.772;38.224;2023-03-23T12:53:38;9.18;;;4.38;;
58240;SDS011;45058;55.772;38.224;2023-03-23T12:55:48;9.60;;;5.40;;
58240;SDS011;45058;55.772;38.224;2023-03-23T12:58:20;10.55;;;5.35;;
58240;SDS011;45058;55.772;38.224;2023-03-23T13:03:39;16.38;;;7.38;;
58240;SDS011;45058;55.772;38.224;2023-03-23T13:11:40;14.52;;;7.47;;
58240;SDS011;45058;55.772;38.224;2023-03-23T13:14:15;7.03;;;4.20;;
58240;SDS011;45058;55.772;38.224;2023-03-23T13:19:46;11.27;;;4.18;;
58240;SDS011;45058;55.772;38.224;2023-03-23T13:22:54;7.80;;;3.90;;
58240;SDS011;45058;55.772;38.224;2023-03-23T13:28:00;10.05;;;4.15;;
58240;SDS011;45058;55.772;38.224;2023-03-23T13:30:29;4.93;;;3.38;;
58240;SDS011;45058;55.772;38.224;2023-03-23T13:33:03;10.05;;;4.45;;
58240;SDS011;45058;55.772;38.224;2023-03-23T13:35:38;12.38;;;4.63;;
58240;SDS011;45058;55.772;38.224;2023-03-23T13:38:44;10.13;;;4.38;;
58240;SDS011;45058;55.772;38.224;2023-03-23T13:40:59;8.68;;;3.85;;
58240;SDS011;45058;55.772;38.224;2023-03-23T13:43:33;6.53;;;3.88;;
58240;SDS011;45058;55.772;38.224;2023-03-23T13:46:09;7.30;;;4.30;;
58240;SDS011;45058;55.772;38.224;2023-03-23T13:51:52;5.32;;;3.90;;
58240;SDS011;45058;55.772;38.224;2023-03-23T13:54:41;6.93;;;4.35;;
58240;SDS011;45058;55.772;38.224;2023-03-23T13:57:23;8.88;;;4.25;;
58240;SDS011;45058;55.772;38.224;2023-03-23T13:59:56;12.95;;;4.55;;
58240;SDS011;45058;55.772;38.224;2023-03-23T14:05:09;11.50;;;3.45;;
58240;SDS011;45058;55.772;38.224;2023-03-23T14:08:05;15.93;;;4.07;;
58240;SDS011;45058;55.772;38.224;2023-03-23T14:10:48;9.60;;;4.18;;
58240;SDS011;45058;55.772;38.224;2023-03-23T14:13:19;8.65;;;4.00;;
58240;SDS011;45058;55.772;38.224;2023-03-23T14:16:37;7.97;;;3.95;;
58240;SDS011;45058;55.772;38.224;2023-03-23T14:18:40;9.68;;;4.30;;
58240;SDS011;45058;55.772;38.224;2023-03-23T14:21:15;11.55;;;4.53;;
58240;SDS011;45058;55.772;38.224;2023-03-23T14:23:43;7.22;;;4.05;;
58240;SDS011;45058;55.772;38.224;2023-03-23T14:26:10;11.70;;;4.15;;
58240;SDS011;45058;55.772;38.224;2023-03-23T14:28:43;7.43;;;3.70;;
58240;SDS011;45058;55.772;38.224;2023-03-23T14:31:18;13.30;;;4.30;;
58240;SDS011;45058;55.772;38.224;2023-03-23T14:33:52;6.07;;;3.75;;
58240;SDS011;45058;55.772;38.224;2023-03-23T14:36:25;18.85;;;4.57;;
58240;SDS011;45058;55.772;38.224;2023-03-23T14:39:00;8.82;;;4.40;;
58240;SDS011;45058;55.772;38.224;2023-03-23T14:41:28;10.23;;;4.75;;
58240;SDS011;45058;55.772;38.224;2023-03-23T14:43:55;9.27;;;5.30;;
58240;SDS011;45058;55.772;38.224;2023-03-23T14:46:22;10.65;;;5.30;;
58240;SDS011;45058;55.772;38.224;2023-03-23T14:48:50;7.68;;;4.57;;
58240;SDS011;45058;55.772;38.224;2023-03-23T14:51:19;7.35;;;4.40;;
58240;SDS011;45058;55.772;38.224;2023-03-23T14:53:49;5.47;;;3.55;;
58240;SDS011;45058;55.772;38.224;2023-03-23T14:56:18;12.07;;;3.88;;
58240;SDS011;45058;55.772;38.224;2023-03-23T14:58:49;6.60;;;3.70;;
58240;SDS011;45058;55.772;38.224;2023-03-23T15:01:22;5.70;;;4.05;;
58240;SDS011;45058;55.772;38.224;2023-03-23T15:04:04;7.85;;;4.25;;
58240;SDS011;45058;55.772;38.224;2023-03-23T15:06:38;8.60;;;5.20;;
58240;SDS011;45058;55.772;38.224;2023-03-23T15:09:07;7.47;;;5.03;;
58240;SDS011;45058;55.772;38.224;2023-03-23T15:11:38;7.85;;;5.32;;
58240;SDS011;45058;55.772;38.224;2023-03-23T15:14:10;10.68;;;5.88;;
58240;SDS011;45058;55.772;38.224;2023-03-23T15:16:46;16.27;;;5.65;;
58240;SDS011;45058;55.772;38.224;2023-03-23T15:19:21;10.35;;;6.28;;
58240;SDS011;45058;55.772;38.224;2023-03-23T15:21:53;13.40;;;5.75;;
58240;SDS011;45058;55.772;38.224;2023-03-23T15:24:25;18.20;;;6.40;;
58240;SDS011;45058;55.772;38.224;2023-03-23T15:26:53;11.95;;;7.10;;
58240;SDS011;45058;55.772;38.224;2023-03-23T15:29:51;17.40;;;7.35;;
58240;SDS011;45058;55.772;38.224;2023-03-23T15:32:29;17.17;;;8.38;;
58240;SDS011;45058;55.772;38.224;2023-03-23T15:34:57;18.10;;;9.05;;
58240;SDS011;45058;55.772;38.224;2023-03-23T15:37:30;11.32;;;7.20;;
58240;SDS011;45058;55.772;38.224;2023-03-23T15:39:57;11.13;;;5.82;;
58240;SDS011;45058;55.772;38.224;2023-03-23T15:42:29;10.73;;;6.82;;
58240;SDS011;45058;55.772;38.224;2023-03-23T15:44:57;10.80;;;6.70;;
58240;SDS011;45058;55.772;38.224;2023-03-23T15:47:37;13.18;;;6.85;;
58240;SDS011;45058;55.772;38.224;2023-03-23T15:50:12;13.73;;;6.53;;
58240;SDS011;45058;55.772;38.224;2023-03-23T15:52:58;8.55;;;6.00;;
58240;SDS011;45058;55.772;38.224;2023-03-23T15:55:25;10.30;;;5.00;;
58240;SDS011;45058;55.772;38.224;2023-03-23T15:57:56;9.70;;;5.03;;
58240;SDS011;45058;55.772;38.224;2023-03-23T16:00:24;20.23;;;5.93;;
58240;SDS011;45058;55.772;38.224;2023-03-23T16:02:58;9.60;;;5.35;;
58240;SDS011;45058;55.772;38.224;2023-03-23T16:05:26;7.18;;;5.13;;
58240;SDS011;45058;55.772;38.224;2023-03-23T16:07:52;9.48;;;5.07;;
58240;SDS011;45058;55.772;38.224;2023-03-23T16:10:20;15.38;;;5.25;;
58240;SDS011;45058;55.772;38.224;2023-03-23T16:12:47;7.93;;;4.43;;
58240;SDS011;45058;55.772;38.224;2023-03-23T16:15:14;8.05;;;4.63;;
58240;SDS011;45058;55.772;38.224;2023-03-23T16:17:41;5.05;;;4.15;;
58240;SDS011;45058;55.772;38.224;2023-03-23T16:20:11;10.50;;;4.80;;
58240;SDS011;45058;55.772;38.224;2023-03-23T16:22:46;7.28;;;5.05;;
58240;SDS011;45058;55.772;38.224;2023-03-23T16:25:12;8.55;;;5.32;;
58240;SDS011;45058;55.772;38.224;2023-03-23T16:27:39;9.35;;;6.00;;
58240;SDS011;45058;55.772;38.224;2023-03-23T16:30:25;8.25;;;4.90;;
58240;SDS011;45058;55.772;38.224;2023-03-23T16:32:53;5.50;;;4.03;;
58240;SDS011;45058;55.772;38.224;2023-03-23T16:35:20;11.60;;;4.63;;
58240;SDS011;45058;55.772;38.224;2023-03-23T16:37:48;7.43;;;4.53;;
58240;SDS011;45058;55.772;38.224;2023-03-23T16:40:15;8.13;;;4.57;;
58240;SDS011;45058;55.772;38.224;2023-03-23T16:42:43;6.47;;;3.88;;
58240;SDS011;45058;55.772;38.224;2023-03-23T16:45:10;10.30;;;5.20;;
58240;SDS011;45058;55.772;38.224;2023-03-23T16:47:36;13.80;;;5.40;;
58240;SDS011;45058;55.772;38.224;2023-03-23T16:50:03;12.35;;;5.28;;
58240;SDS011;45058;55.772;38.224;2023-03-23T16:52:36;15.80;;;5.28;;